Time;durP1;ratioP1;P1;durP2;ratioP2;P2;SDS_P1;SDS_P2;PMS_P1;PMS_P2;Temp;Humidity;BMP_temperature;BMP_pressure;BME280_temperature;BME280_humidity;BME280_pressure;Samples;Min_cycle;Max_cycle;Signal;HPM_P1;HPM_P2
2022/09/28 00:01:43;;;;;;;6.68;2.60;;;8.30;99.90;;;;;;5086216;28;20116;-67
2022/09/28 00:04:11;;;;;;;9.55;2.55;;;8.30;99.90;;;;;;5091675;28;20047;-66
2022/09/28 00:06:38;;;;;;;7.35;3.35;;;8.30;99.90;;;;;;5071561;28;20490;-66
2022/09/28 00:09:04;;;;;;;8.63;4.15;;;8.30;99.90;;;;;;5076004;28;20071;-67
2022/09/28 00:11:32;;;;;;;9.20;2.53;;;8.30;99.90;;;;;;5085498;28;20044;-67
2022/09/28 00:14:01;;;;;;;6.78;2.47;;;8.20;99.90;;;;;;5073668;28;20098;-66
2022/09/28 00:16:33;;;;;;;9.73;3.25;;;8.20;99.90;;;;;;5090075;28;20048;-67
2022/09/28 00:19:00;;;;;;;12.35;2.67;;;8.20;99.90;;;;;;5080830;28;20040;-67
2022/09/28 00:21:29;;;;;;;5.25;2.47;;;8.20;99.90;;;;;;5089754;28;20468;-67
2022/09/28 00:26:48;;;;;;;7.75;3.22;;;8.10;99.90;;;;;;5095256;28;20040;-66
2022/09/28 00:29:18;;;;;;;8.10;2.60;;;8.10;99.90;;;;;;5079552;28;20090;-66
2022/09/28 00:31:45;;;;;;;;;;;8.10;99.90;;;;;;5073718;28;20041;-66
2022/09/28 00:34:12;;;;;;;10.02;2.75;;;8.10;99.90;;;;;;5084123;28;19927;-67
2022/09/28 00:36:42;;;;;;;7.88;2.30;;;8.10;99.90;;;;;;5058547;28;20040;-66
2022/09/28 00:39:09;;;;;;;7.07;3.10;;;8.00;99.90;;;;;;5087368;28;20041;-67
2022/09/28 00:41:36;;;;;;;6.80;2.50;;;8.00;99.90;;;;;;5080928;28;20047;-66
2022/09/28 00:44:21;;;;;;;8.38;2.40;;;7.90;99.90;;;;;;5091305;28;20048;-66
2022/09/28 00:47:12;;;;;;;8.90;2.80;;;8.00;99.90;;;;;;5072018;28;20044;-66
2022/09/28 00:49:42;;;;;;;9.13;3.20;;;7.90;99.90;;;;;;5045613;28;20045;-66
2022/09/28 00:52:12;;;;;;;8.85;2.55;;;7.90;99.90;;;;;;5078709;28;20089;-66
2022/09/28 00:54:38;;;;;;;7.45;2.92;;;7.90;99.90;;;;;;5105222;28;20051;-66
2022/09/28 00:57:05;;;;;;;6.63;2.55;;;7.90;99.90;;;;;;5083319;28;20048;-66
2022/09/28 00:59:32;;;;;;;14.38;3.35;;;7.90;99.90;;;;;;5063135;28;20551;-67
2022/09/28 01:02:00;;;;;;;5.43;2.25;;;7.90;99.90;;;;;;5090197;28;20041;-67
2022/09/28 01:04:27;;;;;;;8.93;4.38;;;7.90;99.90;;;;;;5071312;28;20040;-66
2022/09/28 01:06:56;;;;;;;6.30;3.17;;;7.90;99.90;;;;;;5077814;28;20085;-66
2022/09/28 01:09:23;;;;;;;9.18;2.97;;;7.90;99.90;;;;;;5096989;28;20499;-66
2022/09/28 01:11:50;;;;;;;8.20;2.30;;;7.90;99.90;;;;;;5083384;28;20536;-66
2022/09/28 01:14:17;;;;;;;6.95;2.40;;;7.90;99.90;;;;;;5074167;28;20040;-67
2022/09/28 01:16:59;;;;;;;8.05;2.65;;;7.90;99.90;;;;;;5089036;28;20166;-67
2022/09/28 01:19:54;;;;;;;5.95;2.83;;;7.80;99.90;;;;;;5083285;28;20471;-67
2022/09/28 01:22:33;;;;;;;7.50;2.70;;;7.90;99.90;;;;;;5076336;28;20116;-67
2022/09/28 01:25:10;;;;;;;8.63;3.00;;;7.80;99.90;;;;;;5088955;28;20040;-66
2022/09/28 01:27:43;;;;;;;8.25;2.30;;;7.80;99.90;;;;;;5082946;28;20086;-66
2022/09/28 01:30:18;;;;;;;8.38;2.78;;;7.80;99.90;;;;;;5104730;28;20040;-67
2022/09/28 01:32:54;;;;;;;9.10;2.78;;;7.80;99.90;;;;;;5089831;28;20040;-66
2022/09/28 01:35:35;;;;;;;6.07;2.78;;;7.70;99.90;;;;;;5073691;28;20102;-67
2022/09/28 01:38:05;;;;;;;6.40;2.38;;;7.70;99.90;;;;;;5086666;28;20626;-66
2022/09/28 01:40:32;;;;;;;4.65;2.05;;;7.70;99.90;;;;;;5086370;28;20131;-67
2022/09/28 01:43:07;;;;;;;6.85;3.05;;;7.70;99.90;;;;;;5070333;28;20036;-67
2022/09/28 01:45:48;;;;;;;5.80;3.13;;;7.60;99.90;;;;;;5056726;28;20044;-66
2022/09/28 01:48:18;;;;;;;9.07;2.95;;;7.60;99.90;;;;;;5102446;28;20383;-66
2022/09/28 01:50:45;;;;;;;4.60;2.05;;;7.60;99.90;;;;;;5092153;28;20049;-67
2022/09/28 01:53:23;;;;;;;8.02;2.50;;;7.60;99.90;;;;;;5107388;28;20121;-66
2022/09/28 01:55:56;;;;;;;5.40;2.50;;;7.60;99.90;;;;;;5081271;28;20546;-66
2022/09/28 01:58:31;;;;;;;9.13;2.50;;;7.50;99.90;;;;;;5078368;28;20068;-67
2022/09/28 02:01:11;;;;;;;8.50;2.53;;;7.50;99.90;;;;;;5084815;28;20077;-66
2022/09/28 02:03:41;;;;;;;8.55;2.70;;;7.40;99.90;;;;;;5106458;28;20479;-66
2022/09/28 02:06:11;;;;;;;;;;;7.40;99.90;;;;;;5092377;28;20102;-66
2022/09/28 02:09:08;;;;;;;8.90;3.03;;;7.30;99.90;;;;;;5086616;28;20049;-66
2022/09/28 02:11:36;;;;;;;5.65;2.40;;;7.30;99.90;;;;;;5092430;28;20048;-67
2022/09/28 02:14:08;;;;;;;5.82;2.30;;;7.20;99.90;;;;;;5074893;28;20044;-66
2022/09/28 02:16:46;;;;;;;8.40;2.55;;;7.20;99.90;;;;;;5069111;28;20052;-66
2022/09/28 02:19:17;;;;;;;4.40;2.20;;;7.10;99.90;;;;;;5074925;28;20033;-67
2022/09/28 02:21:56;;;;;;;6.85;2.13;;;7.10;99.90;;;;;;5091045;28;20127;-67
2022/09/28 02:24:44;;;;;;;9.38;3.08;;;7.00;99.90;;;;;;5090887;28;20079;-66
2022/09/28 02:27:22;;;;;;;6.15;2.40;;;7.00;99.90;;;;;;5079032;28;20044;-69
2022/09/28 02:29:48;;;;;;;5.22;2.08;;;6.90;99.90;;;;;;5089704;28;20040;-66
2022/09/28 02:32:16;;;;;;;9.27;2.88;;;6.90;99.90;;;;;;5093295;28;20093;-66
2022/09/28 02:34:43;;;;;;;4.45;2.03;;;6.90;99.90;;;;;;5104845;28;20780;-66
2022/09/28 02:37:09;;;;;;;10.65;2.88;;;6.90;99.90;;;;;;5075336;28;20534;-67
2022/09/28 02:39:36;;;;;;;4.50;2.17;;;6.80;99.90;;;;;;5089808;28;20392;-66
2022/09/28 02:42:22;;;;;;;5.63;1.90;;;6.80;99.90;;;;;;5090561;28;20049;-67
2022/09/28 02:45:08;;;;;;;5.40;2.30;;;6.80;99.90;;;;;;5074439;28;20037;-66
2022/09/28 02:47:54;;;;;;;7.72;2.92;;;6.80;99.90;;;;;;5079294;28;20048;-66
2022/09/28 02:50:59;;;;;;;6.90;2.80;;;6.80;99.90;;;;;;5073805;28;20055;-66
2022/09/28 02:53:46;;;;;;;8.15;2.10;;;6.80;99.90;;;;;;5080855;28;20044;-67
2022/09/28 02:56:32;;;;;;;5.78;1.90;;;6.80;99.90;;;;;;5097000;28;20040;-67
2022/09/28 02:59:38;;;;;;;6.45;2.08;;;6.80;99.90;;;;;;5089831;28;20105;-66
2022/09/28 03:02:19;;;;;;;6.30;2.20;;;6.70;99.90;;;;;;5067555;28;20036;-67
2022/09/28 03:05:05;;;;;;;6.60;2.53;;;6.70;99.90;;;;;;5084913;28;20037;-66
2022/09/28 03:07:38;;;;;;;6.60;2.03;;;6.70;99.90;;;;;;5084661;28;20040;-67
2022/09/28 03:10:36;;;;;;;6.38;3.00;;;6.70;99.90;;;;;;5085031;28;20048;-66
2022/09/28 03:13:03;;;;;;;6.18;2.33;;;6.60;99.90;;;;;;5088358;28;20097;-66
2022/09/28 03:15:31;;;;;;;6.70;2.33;;;6.60;99.90;;;;;;5075275;28;20541;-66
2022/09/28 03:17:58;;;;;;;5.15;2.35;;;6.50;99.90;;;;;;5096656;28;20040;-66
2022/09/28 03:20:26;;;;;;;7.57;2.53;;;6.50;99.90;;;;;;5087658;28;20048;-66
2022/09/28 03:22:53;;;;;;;8.45;2.60;;;6.50;99.90;;;;;;5079650;28;20437;-67
2022/09/28 03:25:40;;;;;;;7.85;3.08;;;6.40;99.90;;;;;;5085833;28;20395;-66
2022/09/28 03:28:06;;;;;;;8.88;2.45;;;6.40;99.90;;;;;;5080173;28;20446;-66
2022/09/28 03:30:33;;;;;;;4.53;2.42;;;6.30;99.90;;;;;;5104137;28;20552;-67
2022/09/28 03:33:01;;;;;;;6.28;2.50;;;6.30;99.90;;;;;;5100724;28;20425;-67
2022/09/28 03:35:28;;;;;;;8.95;2.92;;;6.20;99.90;;;;;;5076724;28;20098;-67
2022/09/28 03:37:55;;;;;;;4.93;2.30;;;6.20;99.90;;;;;;5104260;28;20387;-66
2022/09/28 03:40:22;;;;;;;8.23;2.55;;;6.20;99.90;;;;;;5103888;28;20040;-67
2022/09/28 03:42:49;;;;;;;5.00;3.20;;;6.20;99.90;;;;;;5091774;28;20147;-66
2022/09/28 03:45:16;;;;;;;8.13;3.15;;;6.20;99.90;;;;;;5078105;28;20405;-67
2022/09/28 03:47:46;;;;;;;5.85;2.20;;;6.10;99.90;;;;;;5108286;28;20043;-66
2022/09/28 03:50:13;;;;;;;5.65;2.85;;;6.10;99.90;;;;;;5106021;28;20044;-66
2022/09/28 03:52:42;;;;;;;4.88;3.30;;;6.10;99.90;;;;;;5086074;28;20040;-67
2022/09/28 03:55:09;;;;;;;5.63;1.92;;;6.10;99.90;;;;;;5090339;28;20052;-67
2022/09/28 03:57:36;;;;;;;5.65;2.72;;;6.00;99.90;;;;;;5075742;28;20089;-67
2022/09/28 04:00:04;;;;;;;9.35;2.17;;;6.00;99.90;;;;;;5088447;28;20036;-67
2022/09/28 04:02:32;;;;;;;4.10;2.05;;;6.00;99.90;;;;;;5101753;28;20051;-67
2022/09/28 04:04:59;;;;;;;5.40;1.90;;;5.90;99.90;;;;;;5087441;28;20046;-66
2022/09/28 04:07:26;;;;;;;10.27;3.45;;;6.00;99.90;;;;;;5060726;28;20047;-66
2022/09/28 04:09:57;;;;;;;6.38;2.50;;;6.00;99.90;;;;;;5072732;28;20052;-66
2022/09/28 04:12:23;;;;;;;7.47;3.05;;;6.00;99.90;;;;;;5093033;28;20040;-66
2022/09/28 04:14:50;;;;;;;8.23;3.17;;;6.10;99.90;;;;;;5076993;28;20506;-71
2022/09/28 04:17:17;;;;;;;10.45;3.15;;;6.10;99.90;;;;;;5083261;28;20040;-67
2022/09/28 04:19:44;;;;;;;6.60;2.53;;;6.20;99.90;;;;;;5086503;28;20097;-67
2022/09/28 04:22:11;;;;;;;6.80;2.92;;;6.20;99.90;;;;;;5090952;28;20040;-67
2022/09/28 04:24:38;;;;;;;7.80;2.60;;;6.20;99.90;;;;;;5065252;28;20040;-66
2022/09/28 04:29:50;;;;;;;13.35;3.45;;;6.20;99.90;;;;;;5093471;28;20420;-70
2022/09/28 04:32:17;;;;;;;17.08;2.70;;;6.20;99.90;;;;;;5054324;28;20072;-67
2022/09/28 04:34:44;;;;;;;5.03;2.10;;;6.20;99.90;;;;;;5074875;28;20603;-67
2022/09/28 04:37:11;;;;;;;7.32;3.17;;;6.20;99.90;;;;;;5072185;28;20366;-67
2022/09/28 04:39:39;;;;;;;15.77;3.30;;;6.20;99.90;;;;;;5091384;28;20468;-67
2022/09/28 04:42:10;;;;;;;6.78;2.83;;;6.20;99.90;;;;;;5093433;28;20060;-71
2022/09/28 04:44:37;;;;;;;10.35;2.53;;;6.20;99.90;;;;;;5080463;28;20044;-67
2022/09/28 04:47:04;;;;;;;7.88;2.33;;;6.20;99.90;;;;;;5076947;28;20084;-67
2022/09/28 04:49:34;;;;;;;8.82;3.40;;;6.20;99.90;;;;;;5088290;28;20075;-69
2022/09/28 04:52:00;;;;;;;10.85;3.15;;;6.20;99.90;;;;;;5093562;28;20097;-67
2022/09/28 04:54:27;;;;;;;8.40;2.60;;;6.20;99.90;;;;;;5074289;28;20037;-67
2022/09/28 04:56:54;;;;;;;9.60;3.50;;;6.20;99.90;;;;;;5075450;28;20448;-68
2022/09/28 04:59:21;;;;;;;5.90;2.42;;;6.20;99.90;;;;;;5064152;28;20102;-67
2022/09/28 05:01:48;;;;;;;7.07;2.95;;;6.30;99.90;;;;;;5088889;28;20040;-67
2022/09/28 05:04:15;;;;;;;8.63;2.85;;;6.30;99.90;;;;;;5072694;28;20131;-67
2022/09/28 05:06:42;;;;;;;9.68;2.80;;;6.20;99.90;;;;;;5073484;28;20040;-67
2022/09/28 05:09:09;;;;;;;8.75;2.85;;;6.30;99.90;;;;;;5071204;28;20049;-67
2022/09/28 05:11:35;;;;;;;11.02;3.58;;;6.30;99.90;;;;;;5089977;28;20082;-67
2022/09/28 05:14:02;;;;;;;11.70;4.45;;;6.30;99.90;;;;;;5083729;28;20086;-67
2022/09/28 05:16:32;;;;;;;8.77;3.10;;;6.30;99.90;;;;;;5084319;28;20051;-68
2022/09/28 05:18:59;;;;;;;;;;;6.20;99.90;;;;;;5089470;28;20035;-67
2022/09/28 05:21:28;;;;;;;7.68;2.85;;;6.20;99.90;;;;;;5092676;28;20282;-67
2022/09/28 05:23:55;;;;;;;8.30;3.20;;;6.30;99.90;;;;;;5092702;28;20043;-67
2022/09/28 05:26:22;;;;;;;8.65;2.92;;;6.20;99.90;;;;;;5070779;28;20048;-68
2022/09/28 05:28:49;;;;;;;9.68;2.55;;;6.20;99.90;;;;;;5077834;28;20094;-67
2022/09/28 05:31:16;;;;;;;13.30;3.05;;;6.30;99.90;;;;;;5103465;28;20364;-68
2022/09/28 05:33:43;;;;;;;9.48;3.75;;;6.30;99.90;;;;;;5091718;28;20039;-66
2022/09/28 05:36:10;;;;;;;6.50;2.67;;;6.20;99.90;;;;;;5077835;28;20136;-69
2022/09/28 05:38:37;;;;;;;13.40;3.63;;;6.20;99.90;;;;;;5098800;28;20121;-67
2022/09/28 05:41:04;;;;;;;6.22;2.80;;;6.20;99.90;;;;;;5098887;28;20056;-68
2022/09/28 05:43:32;;;;;;;11.82;3.00;;;6.20;99.90;;;;;;5076912;28;20103;-68
2022/09/28 05:45:59;;;;;;;9.85;2.65;;;6.20;99.90;;;;;;5089561;28;20082;-67
2022/09/28 05:48:27;;;;;;;9.73;2.17;;;6.20;99.90;;;;;;5066844;28;20045;-67
2022/09/28 05:50:54;;;;;;;5.88;2.85;;;6.20;99.90;;;;;;5102842;28;20075;-67
2022/09/28 05:53:21;;;;;;;9.85;3.80;;;6.20;99.90;;;;;;5094472;28;20044;-67
2022/09/28 05:55:47;;;;;;;9.88;3.25;;;6.20;99.90;;;;;;5092066;28;20067;-67
2022/09/28 05:58:14;;;;;;;10.38;2.90;;;6.20;99.90;;;;;;5084485;28;20105;-67
2022/09/28 06:00:41;;;;;;;12.80;4.00;;;6.10;99.90;;;;;;5097711;28;20044;-67
2022/09/28 06:03:12;;;;;;;8.60;3.22;;;6.20;99.90;;;;;;5109188;28;20113;-67
2022/09/28 06:05:39;;;;;;;4.82;2.90;;;6.10;99.90;;;;;;5090798;28;20067;-66
2022/09/28 06:08:09;;;;;;;22.88;11.20;;;6.10;99.90;;;;;;5109372;28;20044;-66
2022/09/28 06:10:36;;;;;;;842.50;499.08;;;6.10;99.90;;;;;;5070650;28;20468;-68
2022/09/28 06:13:02;;;;;;;105.07;81.30;;;6.10;99.90;;;;;;5065150;28;20040;-65
2022/09/28 06:15:30;;;;;;;558.03;357.38;;;6.10;99.90;;;;;;5081659;28;20044;-67
2022/09/28 06:18:05;;;;;;;156.70;115.75;;;6.20;99.90;;;;;;5091992;28;20088;-66
2022/09/28 06:20:33;;;;;;;57.72;37.42;;;6.20;99.90;;;;;;5076251;28;20062;-65
2022/09/28 06:23:00;;;;;;;31.67;15.65;;;6.20;99.90;;;;;;5072180;28;20052;-68
2022/09/28 06:25:27;;;;;;;19.23;11.45;;;6.10;99.90;;;;;;5092218;28;20073;-67
2022/09/28 06:27:57;;;;;;;12.63;6.18;;;6.20;99.90;;;;;;5077282;28;20361;-68
2022/09/28 06:30:25;;;;;;;16.80;4.72;;;6.10;99.90;;;;;;5092227;28;20118;-68
2022/09/28 06:32:57;;;;;;;144.38;106.82;;;6.20;99.90;;;;;;5082105;28;20476;-65
2022/09/28 06:35:25;;;;;;;245.25;163.07;;;6.20;99.90;;;;;;5081431;28;20040;-66
2022/09/28 06:37:52;;;;;;;36.55;25.25;;;6.30;99.90;;;;;;5061262;28;20037;-65
2022/09/28 06:40:19;;;;;;;20.83;10.30;;;6.30;99.90;;;;;;5098302;28;20057;-65
2022/09/28 06:43:08;;;;;;;15.77;7.00;;;6.40;99.90;;;;;;5088728;28;20131;-65
2022/09/28 06:45:35;;;;;;;14.15;6.75;;;6.40;99.90;;;;;;5073923;28;20532;-66
2022/09/28 06:48:02;;;;;;;10.23;5.18;;;6.50;99.90;;;;;;5056386;28;20052;-65
2022/09/28 06:50:32;;;;;;;11.50;4.30;;;6.60;99.90;;;;;;5084237;28;20048;-66
2022/09/28 06:52:59;;;;;;;8.07;3.88;;;6.60;99.90;;;;;;5095710;28;20059;-68
2022/09/28 06:55:27;;;;;;;8.65;3.40;;;6.70;99.90;;;;;;5083582;28;20040;-67
2022/09/28 06:58:01;;;;;;;17.55;5.75;;;6.70;99.90;;;;;;5087926;28;20044;-65
2022/09/28 07:00:29;;;;;;;10.38;4.00;;;6.70;99.90;;;;;;5087667;28;20095;-66
2022/09/28 07:02:56;;;;;;;11.10;4.10;;;6.80;99.90;;;;;;5089279;28;20069;-65
2022/09/28 07:05:26;;;;;;;12.48;4.82;;;6.80;99.90;;;;;;5079256;28;20040;-65
2022/09/28 07:07:54;;;;;;;10.85;4.80;;;6.80;99.90;;;;;;5078917;28;20105;-64
2022/09/28 07:10:26;;;;;;;12.48;4.40;;;6.90;99.90;;;;;;5083678;28;20044;-63
2022/09/28 07:12:54;;;;;;;13.25;3.88;;;6.90;99.90;;;;;;5094452;28;20032;-66
2022/09/28 07:15:21;;;;;;;10.27;3.60;;;7.00;99.90;;;;;;5089282;28;20383;-64
2022/09/28 07:17:48;;;;;;;12.30;3.95;;;7.00;99.90;;;;;;5079798;28;20036;-64
2022/09/28 07:20:27;;;;;;;6.78;3.67;;;7.10;99.90;;;;;;5078929;28;20040;-69
2022/09/28 07:22:55;;;;;;;12.13;4.05;;;7.20;99.90;;;;;;5081589;28;20069;-66
2022/09/28 07:25:25;;;;;;;18.30;5.40;;;7.20;99.90;;;;;;5088969;28;20484;-66
2022/09/28 07:27:56;;;;;;;11.80;4.50;;;7.30;99.90;;;;;;5072226;28;20094;-64
2022/09/28 07:30:25;;;;;;;8.20;3.75;;;7.30;99.90;;;;;;5082608;28;20044;-64
2022/09/28 07:32:53;;;;;;;8.27;4.03;;;7.40;99.90;;;;;;5077473;28;20053;-66
2022/09/28 07:35:20;;;;;;;8.98;3.72;;;7.40;99.90;;;;;;5072963;28;20087;-66
2022/09/28 07:37:47;;;;;;;6.97;3.65;;;7.40;99.90;;;;;;5084751;28;20434;-68
2022/09/28 07:43:04;;;;;;;8.63;4.47;;;7.50;99.90;;;;;;5066992;28;20486;-65
2022/09/28 07:45:34;;;;;;;8.95;3.95;;;7.60;99.90;;;;;;5079027;28;20036;-64
2022/09/28 07:48:02;;;;;;;12.80;4.68;;;7.60;99.90;;;;;;5055970;28;20047;-65
2022/09/28 07:50:29;;;;;;;10.73;5.68;;;7.70;99.90;;;;;;5092615;28;20366;-66
2022/09/28 07:52:56;;;;;;;27.10;16.98;;;7.70;99.90;;;;;;5060053;28;20113;-65
2022/09/28 07:55:23;;;;;;;13.75;7.60;;;7.80;99.90;;;;;;5093952;28;20037;-65
2022/09/28 07:57:59;;;;;;;8.93;4.70;;;8.00;99.90;;;;;;5084511;28;20045;-67
2022/09/28 08:00:28;;;;;;;11.68;4.75;;;8.00;99.90;;;;;;5076169;28;20734;-64
2022/09/28 08:03:00;;;;;;;8.52;4.28;;;8.10;99.90;;;;;;5071999;28;20040;-63
2022/09/28 08:05:31;;;;;;;11.18;5.07;;;8.10;99.90;;;;;;5082765;28;20048;-64
2022/09/28 08:07:58;;;;;;;8.73;4.90;;;8.20;99.90;;;;;;5083098;28;20064;-63
2022/09/28 08:10:25;;;;;;;7.80;4.53;;;8.30;99.90;;;;;;5075676;28;20059;-64
2022/09/28 08:12:56;;;;;;;9.50;4.63;;;8.30;99.90;;;;;;5071545;28;20052;-64
2022/09/28 08:15:32;;;;;;;14.27;5.20;;;8.30;99.90;;;;;;5074548;28;20102;-64
2022/09/28 08:17:59;;;;;;;10.77;5.20;;;8.40;99.90;;;;;;5098022;28;20040;-65
2022/09/28 08:23:17;;;;;;;10.30;4.67;;;8.50;99.90;;;;;;5095881;28;20078;-63
2022/09/28 08:25:48;;;;;;;9.10;4.82;;;8.60;99.90;;;;;;5088630;28;20327;-63
2022/09/28 08:28:16;;;;;;;15.40;4.45;;;8.60;99.90;;;;;;5066921;28;20055;-66
2022/09/28 08:30:44;;;;;;;12.43;5.45;;;8.70;99.90;;;;;;5079033;28;20048;-64
2022/09/28 08:33:16;;;;;;;25.83;17.90;;;8.70;99.90;;;;;;5091187;28;20040;-65
2022/09/28 08:35:44;;;;;;;11.80;7.20;;;8.80;99.90;;;;;;5087624;28;20383;-65
2022/09/28 08:38:12;;;;;;;12.68;6.18;;;8.80;99.90;;;;;;5072366;28;20051;-65
2022/09/28 08:40:49;;;;;;;12.07;5.72;;;8.90;99.90;;;;;;5096595;28;20445;-64
2022/09/28 08:43:39;;;;;;;12.57;5.75;;;8.90;99.90;;;;;;5073942;28;20064;-64
2022/09/28 08:46:06;;;;;;;8.65;5.30;;;9.00;99.90;;;;;;5061875;28;20052;-66
2022/09/28 08:48:47;;;;;;;17.60;5.45;;;9.00;99.90;;;;;;5088097;28;20041;-66
2022/09/28 08:51:38;;;;;;;8.65;4.95;;;9.10;99.90;;;;;;5059892;28;20380;-66
2022/09/28 08:54:08;;;;;;;10.57;5.75;;;9.20;99.90;;;;;;5070481;28;20113;-66
2022/09/28 08:56:49;;;;;;;16.92;5.82;;;9.30;99.90;;;;;;5070990;28;20499;-67
2022/09/28 08:59:24;;;;;;;19.02;6.90;;;9.40;99.90;;;;;;5070517;28;20476;-66
2022/09/28 09:02:02;;;;;;;10.20;5.32;;;9.40;99.90;;;;;;5076520;28;20037;-66
2022/09/28 09:04:30;;;;;;;10.30;5.85;;;9.50;99.90;;;;;;5069881;28;20083;-67
2022/09/28 09:07:16;;;;;;;11.48;5.35;;;9.50;99.90;;;;;;5094620;28;20109;-67
2022/09/28 09:10:12;;;;;;;9.45;5.15;;;9.60;99.90;;;;;;5071897;28;20050;-66
2022/09/28 09:12:42;;;;;;;42.85;25.95;;;9.80;99.90;;;;;;5076196;28;20048;-65
2022/09/28 09:15:47;;;;;;;20.85;13.57;;;9.90;99.90;;;;;;5082963;28;20127;-66
2022/09/28 09:18:25;;;;;;;45.83;39.95;;;10.10;99.90;;;;;;5091989;28;20040;-66
2022/09/28 09:20:56;;;;;;;14.80;6.55;;;10.40;99.90;;;;;;5106664;28;20044;-66
2022/09/28 09:23:28;;;;;;;16.33;8.20;;;10.50;99.90;;;;;;5090583;28;20048;-56
2022/09/28 09:25:59;;;;;;;66.75;42.60;;;10.60;99.90;;;;;;5070990;28;20056;-66
2022/09/28 09:28:42;;;;;;;148.90;107.18;;;10.80;99.90;;;;;;5075598;28;20044;-66
2022/09/28 09:31:36;;;;;;;13.48;9.52;;;11.00;99.90;;;;;;5077084;28;20044;-66
2022/09/28 09:34:08;;;;;;;10.95;6.22;;;11.30;99.90;;;;;;5074377;28;20464;-64
2022/09/28 09:36:56;;;;;;;15.52;5.90;;;11.40;99.90;;;;;;5079307;28;20047;-67
2022/09/28 09:39:56;;;;;;;8.35;5.50;;;11.50;99.90;;;;;;5083957;28;20131;-66
2022/09/28 09:42:46;;;;;;;9.48;4.78;;;11.70;99.90;;;;;;5080266;28;20044;-65
2022/09/28 09:45:38;;;;;;;12.05;5.68;;;11.80;99.90;;;;;;5082367;28;20090;-64
2022/09/28 09:48:23;;;;;;;10.00;5.15;;;11.90;99.90;;;;;;5056031;28;20430;-64
2022/09/28 09:50:56;;;;;;;7.57;4.88;;;12.00;99.90;;;;;;5078393;28;20044;-65
2022/09/28 09:53:27;;;;;;;12.85;5.28;;;12.10;99.90;;;;;;5079636;28;20146;-64
2022/09/28 09:56:00;;;;;;;7.72;3.83;;;12.10;99.90;;;;;;5078421;28;20062;-64
2022/09/28 09:58:27;;;;;;;9.65;4.65;;;12.10;99.90;;;;;;5102335;28;20422;-65
2022/09/28 10:00:54;;;;;;;8.07;4.55;;;12.10;99.90;;;;;;5077884;28;20102;-65
2022/09/28 10:03:27;;;;;;;10.18;4.43;;;12.10;99.90;;;;;;5086757;28;20075;-65
2022/09/28 10:05:57;;;;;;;17.90;4.32;;;12.20;99.90;;;;;;5076972;28;20051;-65
2022/09/28 10:08:24;;;;;;;7.00;3.65;;;12.10;99.90;;;;;;5057347;28;20036;-65
2022/09/28 10:10:53;;;;;;;8.45;4.40;;;12.10;99.90;;;;;;5070077;28;20047;-65
2022/09/28 10:13:19;;;;;;;9.10;4.03;;;12.10;99.90;;;;;;5051897;28;20051;-65
2022/09/28 10:15:46;;;;;;;7.30;4.00;;;12.20;99.90;;;;;;5073537;28;20475;-65
2022/09/28 10:18:14;;;;;;;6.50;3.30;;;12.20;99.90;;;;;;5081280;28;20094;-65
2022/09/28 10:20:42;;;;;;;6.85;3.47;;;12.20;99.90;;;;;;5073600;28;20484;-65
2022/09/28 10:23:29;;;;;;;6.65;2.40;;;12.30;99.90;;;;;;5067534;28;20043;-65
2022/09/28 10:26:01;;;;;;;5.45;2.55;;;12.40;99.90;;;;;;5079523;28;20041;-65
2022/09/28 10:28:48;;;;;;;4.43;2.60;;;12.50;99.90;;;;;;5056068;28;20391;-66
2022/09/28 10:31:35;;;;;;;5.80;3.03;;;12.40;99.90;;;;;;5057329;28;20421;-65
2022/09/28 10:34:03;;;;;;;157.55;102.75;;;12.30;99.90;;;;;;5086819;28;20052;-65
2022/09/28 10:36:37;;;;;;;14.77;7.47;;;12.30;99.90;;;;;;5084302;28;20452;-65
2022/09/28 10:39:04;;;;;;;8.13;4.05;;;12.30;99.90;;;;;;5080946;28;20080;-68
2022/09/28 10:41:31;;;;;;;7.30;3.03;;;12.20;99.90;;;;;;5038129;28;20048;-66
2022/09/28 10:44:09;;;;;;;4.30;2.13;;;12.30;99.90;;;;;;5067563;28;20514;-71
2022/09/28 10:46:37;;;;;;;5.38;2.80;;;12.40;99.90;;;;;;5095597;28;20434;-66
2022/09/28 10:49:08;;;;;;;8.20;2.65;;;12.40;99.90;;;;;;5070464;28;20101;-66
2022/09/28 10:51:48;;;;;;;5.57;2.25;;;12.60;99.90;;;;;;5075551;28;20086;-71
2022/09/28 10:54:24;;;;;;;3.17;1.80;;;12.80;99.90;;;;;;5090069;28;20044;-65
2022/09/28 10:56:52;;;;;;;2.60;1.30;;;13.10;99.90;;;;;;5083339;28;20492;-72
2022/09/28 10:59:28;;;;;;;7.95;2.03;;;13.10;99.90;;;;;;5084329;28;20044;-66
2022/09/28 11:02:00;;;;;;;2.28;1.50;;;13.20;99.90;;;;;;5076342;28;20586;-66
2022/09/28 11:04:31;;;;;;;2.97;1.80;;;13.20;99.90;;;;;;5091257;28;20049;-69
2022/09/28 11:07:00;;;;;;;5.85;1.88;;;13.20;99.90;;;;;;5102252;28;20109;-67
2022/09/28 11:09:32;;;;;;;9.93;1.75;;;13.30;99.90;;;;;;5099442;28;20040;-68
2022/09/28 11:11:59;;;;;;;4.57;1.80;;;13.30;99.90;;;;;;5079193;28;20388;-67
2022/09/28 11:14:28;;;;;;;6.10;1.60;;;13.30;99.90;;;;;;5090382;28;20055;-65
2022/09/28 11:17:24;;;;;;;4.35;2.08;;;13.30;99.90;;;;;;5096000;28;20072;-66
2022/09/28 11:19:52;;;;;;;3.65;1.77;;;13.30;99.90;;;;;;5072279;28;20044;-65
2022/09/28 11:22:23;;;;;;;3.70;1.67;;;13.40;99.90;;;;;;5076195;28;20361;-63
2022/09/28 11:24:50;;;;;;;4.22;1.55;;;13.40;99.90;;;;;;5080845;28;20051;-63
2022/09/28 11:27:24;;;;;;;5.72;1.77;;;13.40;99.90;;;;;;5094949;28;20102;-67
2022/09/28 11:29:57;;;;;;;6.30;1.75;;;13.40;99.90;;;;;;5079933;28;20476;-67
2022/09/28 11:32:29;;;;;;;4.28;1.90;;;13.30;99.90;;;;;;5080615;28;20430;-64
2022/09/28 11:34:57;;;;;;;17.63;11.52;;;13.30;99.90;;;;;;5077554;28;20036;-65
2022/09/28 11:38:04;;;;;;;6.32;2.22;;;13.40;99.90;;;;;;5077454;28;20044;-65
2022/09/28 11:40:44;;;;;;;2.42;1.50;;;13.40;99.90;;;;;;5079603;28;20541;-65
2022/09/28 11:43:32;;;;;;;4.88;1.38;;;13.50;99.90;;;;;;5053543;28;20381;-65
2022/09/28 11:46:46;;;;;;;3.15;1.30;;;13.60;99.90;;;;;;5069702;28;20041;-64
2022/09/28 11:49:36;;;;;;;10.90;7.22;;;13.60;99.90;;;;;;5031743;28;20099;-65
2022/09/28 11:52:10;;;;;;;4.05;2.55;;;13.70;99.90;;;;;;5040367;28;20136;-68
2022/09/28 11:54:47;;;;;;;3.92;1.42;;;13.70;99.90;;;;;;5068383;28;20036;-66
2022/09/28 11:57:16;;;;;;;3.47;1.50;;;13.70;99.90;;;;;;5074151;28;20048;-63
2022/09/28 12:00:05;;;;;;;2.75;1.70;;;13.70;99.90;;;;;;5071653;28;20040;-66
2022/09/28 12:02:48;;;;;;;5.73;1.60;;;13.70;99.90;;;;;;5084427;28;20044;-64
2022/09/28 12:05:16;;;;;;;3.92;1.50;;;13.80;99.90;;;;;;5077458;28;20036;-64
2022/09/28 12:08:08;;;;;;;5.40;1.90;;;13.80;99.90;;;;;;5076655;28;20113;-68
2022/09/28 12:10:41;;;;;;;5.53;2.05;;;13.90;99.90;;;;;;5075204;28;20046;-65
2022/09/28 12:13:16;;;;;;;3.85;1.48;;;14.10;99.90;;;;;;5079768;28;20119;-64
2022/09/28 12:15:50;;;;;;;3.67;1.60;;;14.10;99.90;;;;;;5079830;28;20036;-65
2022/09/28 12:18:51;;;;;;;3.90;2.00;;;14.20;99.90;;;;;;5076640;28;20468;-65
2022/09/28 12:21:30;;;;;;;4.43;1.60;;;14.20;99.90;;;;;;5073908;28;20413;-63
2022/09/28 12:24:30;;;;;;;5.53;1.92;;;14.10;99.90;;;;;;5078852;28;20085;-65
2022/09/28 12:27:09;;;;;;;;;;;14.20;99.90;;;;;;5069357;28;20056;-65
2022/09/28 12:30:24;;;;;;;4.85;1.85;;;14.30;99.90;;;;;;5072770;28;20413;-64
2022/09/28 12:32:55;;;;;;;52.88;42.80;;;14.40;99.90;;;;;;5077454;28;20051;-64
2022/09/28 12:35:48;;;;;;;7.32;4.47;;;14.40;99.90;;;;;;5085696;28;20090;-63
2022/09/28 12:38:15;;;;;;;6.68;2.78;;;14.60;99.90;;;;;;5071267;28;20044;-63
2022/09/28 12:40:48;;;;;;;3.08;2.10;;;14.70;99.90;;;;;;5080423;28;20093;-63
2022/09/28 12:43:43;;;;;;;2.50;1.70;;;14.70;99.90;;;;;;5066991;28;20438;-64
2022/09/28 12:46:14;;;;;;;4.25;1.38;;;14.70;99.90;;;;;;5082237;28;20090;-64
2022/09/28 12:48:47;;;;;;;3.15;1.58;;;14.70;99.90;;;;;;5070116;28;20044;-63
2022/09/28 12:51:51;;;;;;;5.40;1.75;;;14.70;99.90;;;;;;5084933;28;20122;-64
2022/09/28 12:54:17;;;;;;;3.42;1.45;;;14.60;99.90;;;;;;5086431;28;20044;-63
2022/09/28 12:57:23;;;;;;;3.08;1.77;;;14.70;99.90;;;;;;5081306;28;20379;-64
2022/09/28 13:00:08;;;;;;;3.53;1.70;;;14.80;99.90;;;;;;5080336;28;20426;-63
2022/09/28 13:02:52;;;;;;;5.10;2.17;;;14.80;99.90;;;;;;5083129;28;20047;-64
2022/09/28 13:05:34;;;;;;;3.63;2.30;;;14.90;99.90;;;;;;5085879;28;20074;-64
2022/09/28 13:08:08;;;;;;;2.53;1.60;;;14.90;99.90;;;;;;5085075;28;20052;-64
2022/09/28 13:10:45;;;;;;;3.17;1.58;;;15.00;99.90;;;;;;5054537;28;20480;-63
2022/09/28 13:13:37;;;;;;;3.60;1.90;;;15.00;99.90;;;;;;5082108;28;20044;-64
2022/09/28 13:16:16;;;;;;;3.13;1.17;;;15.00;99.90;;;;;;5074706;28;20048;-63
2022/09/28 13:18:56;;;;;;;4.32;2.08;;;15.00;99.90;;;;;;5073646;28;20049;-64
2022/09/28 13:21:40;;;;;;;48.63;37.35;;;15.10;99.90;;;;;;5097647;28;20044;-64
2022/09/28 13:24:10;;;;;;;5.85;4.15;;;15.20;99.90;;;;;;5092902;28;20048;-62
2022/09/28 13:26:58;;;;;;;4.25;2.38;;;15.20;99.90;;;;;;5082541;28;20048;-63
2022/09/28 13:29:25;;;;;;;10.02;1.92;;;15.20;99.90;;;;;;5093162;28;20040;-67
2022/09/28 13:31:57;;;;;;;4.00;1.67;;;15.20;99.90;;;;;;5067888;28;20044;-61
2022/09/28 13:34:28;;;;;;;3.63;2.08;;;15.20;99.90;;;;;;5081396;28;20507;-62